createdAt,value
2023-03-28T00:00:18.330Z,-1.30
2023-03-28T00:05:20.318Z,-1.40
2023-03-28T00:10:22.291Z,-1.40
2023-03-28T00:15:25.793Z,-1.40
2023-03-28T00:20:29.949Z,-1.30
2023-03-28T00:25:36.386Z,-1.30
2023-03-28T00:30:38.098Z,-1.40
2023-03-28T00:35:39.857Z,-1.40
2023-03-28T00:40:44.345Z,-1.60
2023-03-28T00:45:50.772Z,-1.60
2023-03-28T00:51:03.881Z,-1.70
2023-03-28T00:56:09.320Z,-1.70
2023-03-28T01:01:14.087Z,-1.70
2023-03-28T01:06:16.582Z,-1.80
2023-03-28T01:11:19.590Z,-1.80
2023-03-28T01:16:22.898Z,-1.80
2023-03-28T01:22:07.543Z,-1.80
2023-03-28T01:27:52.194Z,-2.10
2023-03-28T01:33:15.485Z,-1.80
2023-03-28T01:38:59.412Z,-1.90
2023-03-28T01:44:23.060Z,-1.90
2023-03-28T01:49:34.510Z,-1.90
2023-03-28T01:54:54.424Z,-1.80
2023-03-28T01:59:56.231Z,-1.80
2023-03-28T02:05:00.482Z,-1.90
2023-03-28T02:10:04.671Z,-1.80
2023-03-28T02:15:11.938Z,-1.90
2023-03-28T02:20:19.496Z,-2.10
2023-03-28T02:25:21.535Z,-2.20
2023-03-28T02:30:23.576Z,-2.00
2023-03-28T02:35:32.696Z,-1.90
2023-03-28T02:40:56.674Z,-2.00
2023-03-28T02:46:19.800Z,-2.00
2023-03-28T02:51:40.661Z,-2.00
2023-03-28T02:56:52.986Z,-2.00
2023-03-28T03:01:54.950Z,-2.00
2023-03-28T03:06:56.829Z,-1.90
2023-03-28T03:11:58.616Z,-2.00
2023-03-28T03:17:00.337Z,-2.10
2023-03-28T03:22:02.547Z,-2.10
2023-03-28T03:27:04.515Z,-2.30
2023-03-28T03:32:06.510Z,-2.40
2023-03-28T03:37:11.582Z,-2.40
2023-03-28T03:42:13.414Z,-2.20
2023-03-28T03:47:17.809Z,-2.40
2023-03-28T03:52:19.581Z,-2.40
2023-03-28T03:57:21.498Z,-2.40
2023-03-28T04:02:23.364Z,-2.40
2023-03-28T04:07:25.265Z,-2.40
2023-03-28T04:12:27.443Z,-2.50
2023-03-28T04:17:30.055Z,-2.70
2023-03-28T04:22:32.098Z,-2.70
2023-03-28T04:27:33.957Z,-2.80
2023-03-28T04:32:36.200Z,-2.80
2023-03-28T04:37:38.198Z,-2.60
2023-03-28T04:42:40.158Z,-2.60
2023-03-28T04:47:42.853Z,-2.60
2023-03-28T04:52:44.876Z,-2.50
2023-03-28T04:57:46.586Z,-2.40
2023-03-28T05:02:48.504Z,-2.30
2023-03-28T05:07:50.790Z,-2.20
2023-03-28T05:12:52.553Z,-2.00
2023-03-28T05:17:54.473Z,-2.00
2023-03-28T05:22:57.627Z,-1.80
2023-03-28T05:27:59.485Z,-1.00
2023-03-28T05:33:01.542Z,0.30
2023-03-28T05:38:04.344Z,1.90
2023-03-28T05:43:06.158Z,0.80
2023-03-28T05:48:08.150Z,1.20
2023-03-28T05:53:09.901Z,1.00
2023-03-28T05:58:11.690Z,0.80
2023-03-28T06:03:16.546Z,1.80
2023-03-28T06:08:19.324Z,2.50
2023-03-28T06:13:21.449Z,2.20
2023-03-28T06:18:23.253Z,3.80
2023-03-28T06:23:25.268Z,5.90
2023-03-28T06:28:26.998Z,4.90
2023-03-28T06:33:28.788Z,3.50
2023-03-28T06:38:31.067Z,3.60
2023-03-28T06:43:33.017Z,4.00
2023-03-28T06:48:36.194Z,7.20
2023-03-28T06:53:38.613Z,7.90
2023-03-28T06:58:40.333Z,9.90
2023-03-28T07:03:42.119Z,10.50
2023-03-28T07:08:44.011Z,10.90
2023-03-28T07:13:46.095Z,12.20
2023-03-28T07:18:47.888Z,13.80
2023-03-28T07:23:49.819Z,15.40
2023-03-28T07:28:53.834Z,13.30
2023-03-28T07:33:58.827Z,16.20
2023-03-28T07:39:00.649Z,11.80
2023-03-28T07:44:02.470Z,15.70
2023-03-28T07:49:04.374Z,14.70
2023-03-28T07:54:06.196Z,15.10
2023-03-28T07:59:07.987Z,15.00
2023-03-28T08:04:11.464Z,11.70
2023-03-28T08:09:16.087Z,12.90
2023-03-28T08:14:18.594Z,12.80
2023-03-28T08:19:20.442Z,12.10
2023-03-28T08:24:32.819Z,11.90
2023-03-28T08:29:37.328Z,12.10
2023-03-28T08:34:40.584Z,10.90
2023-03-28T08:39:42.771Z,11.70
2023-03-28T08:44:56.504Z,12.20
2023-03-28T08:50:17.224Z,11.90
2023-03-28T08:55:39.143Z,14.60
2023-03-28T09:00:40.992Z,15.90
2023-03-28T09:05:49.817Z,13.80
2023-03-28T09:10:58.553Z,11.70
2023-03-28T09:16:20.269Z,9.10
2023-03-28T09:21:31.368Z,7.70
2023-03-28T09:26:47.937Z,9.40
2023-03-28T09:31:54.604Z,10.20
2023-03-28T09:37:02.991Z,12.30
2023-03-28T09:42:16.176Z,8.80
2023-03-28T09:47:17.907Z,8.90
2023-03-28T09:52:21.340Z,8.60
2023-03-28T09:57:23.486Z,10.70
2023-03-28T10:02:32.345Z,9.00
2023-03-28T10:07:42.817Z,7.70
2023-03-28T10:12:47.565Z,7.60
2023-03-28T10:17:50.973Z,7.30
2023-03-28T10:22:54.840Z,6.30
2023-03-28T10:28:00.712Z,7.00
2023-03-28T10:33:17.608Z,6.70
2023-03-28T10:38:21.586Z,6.50
2023-03-28T10:43:32.613Z,7.10
2023-03-28T10:48:36.396Z,7.50
2023-03-28T10:54:12.770Z,7.10
2023-03-28T10:59:48.574Z,6.70
2023-03-28T11:05:11.537Z,6.00
2023-03-28T11:10:31.068Z,7.10
2023-03-28T11:16:01.192Z,6.80
2023-03-28T11:21:41.052Z,6.40
2023-03-28T11:27:14.728Z,6.30
2023-03-28T11:32:56.722Z,6.80
2023-03-28T11:38:15.065Z,6.10
2023-03-28T11:43:35.265Z,6.40
2023-03-28T11:48:48.983Z,6.50
2023-03-28T11:54:03.157Z,6.70
2023-03-28T11:59:15.856Z,6.40
2023-03-28T12:04:42.742Z,5.90
2023-03-28T12:09:47.248Z,5.50
2023-03-28T12:15:07.324Z,5.90
2023-03-28T12:20:24.174Z,6.10
2023-03-28T12:25:38.582Z,6.40
2023-03-28T12:31:19.928Z,6.50
2023-03-28T12:36:29.892Z,6.80
2023-03-28T12:41:37.728Z,6.60
2023-03-28T12:47:06.398Z,5.90
2023-03-28T12:52:11.698Z,5.40
2023-03-28T12:57:37.310Z,5.20
2023-03-28T13:02:46.647Z,4.90
2023-03-28T13:08:09.106Z,4.70
2023-03-28T13:13:45.821Z,4.50
2023-03-28T13:18:49.317Z,4.30
2023-03-28T13:23:51.152Z,4.30
2023-03-28T13:28:59.552Z,4.50
2023-03-28T13:34:03.633Z,5.00
2023-03-28T13:39:09.620Z,4.80
2023-03-28T13:44:27.624Z,4.50
2023-03-28T13:49:29.350Z,4.40
2023-03-28T13:54:31.749Z,5.10
2023-03-28T13:59:38.640Z,5.00
2023-03-28T14:04:40.446Z,4.80
2023-03-28T14:09:42.200Z,4.30
2023-03-28T14:14:50.277Z,3.80
2023-03-28T14:20:05.506Z,3.50
2023-03-28T14:25:11.901Z,3.90
2023-03-28T14:30:30.855Z,4.50
2023-03-28T14:35:34.622Z,3.80
2023-03-28T14:40:41.503Z,3.60
2023-03-28T14:45:47.918Z,3.30
2023-03-28T14:50:52.903Z,3.30
2023-03-28T14:56:08.885Z,3.40
2023-03-28T15:01:22.508Z,3.50
2023-03-28T15:06:24.737Z,3.50
2023-03-28T15:11:35.806Z,4.00
2023-03-28T15:16:40.794Z,4.00
2023-03-28T15:21:54.251Z,3.80
2023-03-28T15:27:02.086Z,3.50
2023-03-28T15:32:07.166Z,3.20
2023-03-28T15:37:15.298Z,3.20
2023-03-28T15:42:20.373Z,3.20
2023-03-28T15:47:31.481Z,3.10
2023-03-28T15:52:36.514Z,3.20
2023-03-28T15:57:38.466Z,3.10
2023-03-28T16:02:40.862Z,3.00
2023-03-28T16:07:48.616Z,2.80
2023-03-28T16:12:51.517Z,2.70
2023-03-28T16:17:55.538Z,2.70
2023-03-28T16:22:57.374Z,2.60
2023-03-28T16:27:59.116Z,2.60
2023-03-28T16:33:01.102Z,2.60
2023-03-28T16:38:03.385Z,2.50
2023-03-28T16:43:05.670Z,2.50
2023-03-28T16:48:08.048Z,2.60
2023-03-28T16:53:09.887Z,2.60
2023-03-28T16:58:11.626Z,2.60
2023-03-28T17:03:13.525Z,2.70
2023-03-28T17:08:15.830Z,2.60
2023-03-28T17:13:17.786Z,2.50
2023-03-28T17:18:19.698Z,2.40
2023-03-28T17:23:21.722Z,2.30
2023-03-28T17:28:24.719Z,2.10
2023-03-28T17:33:29.385Z,2.10
2023-03-28T17:38:31.418Z,2.00
2023-03-28T17:43:33.348Z,1.90
2023-03-28T17:48:35.224Z,2.00
2023-03-28T17:53:41.751Z,2.20
2023-03-28T17:58:44.117Z,2.30
2023-03-28T18:03:46.863Z,2.20
2023-03-28T18:08:48.871Z,2.00
2023-03-28T18:13:53.645Z,1.80
2023-03-28T18:18:55.663Z,1.60
2023-03-28T18:23:57.581Z,1.30
2023-03-28T18:28:59.380Z,1.20
2023-03-28T18:34:05.017Z,1.40
2023-03-28T18:39:10.399Z,1.70
2023-03-28T18:44:12.504Z,1.90
2023-03-28T18:49:15.301Z,1.90
2023-03-28T18:54:17.343Z,1.80
2023-03-28T18:59:19.255Z,1.80
2023-03-28T19:04:23.390Z,1.80
2023-03-28T19:09:25.805Z,1.90
2023-03-28T19:14:27.764Z,1.90
2023-03-28T19:19:29.611Z,1.80
2023-03-28T19:24:31.809Z,1.80
2023-03-28T19:29:33.663Z,1.90
2023-03-28T19:34:35.519Z,1.90
2023-03-28T19:39:37.258Z,1.80
2023-03-28T19:44:39.487Z,1.80
2023-03-28T19:49:41.320Z,1.80
2023-03-28T19:54:43.345Z,1.70
2023-03-28T19:59:45.407Z,1.70
2023-03-28T20:04:47.207Z,1.60
2023-03-28T20:09:49.351Z,1.60
2023-03-28T20:14:51.345Z,1.50
2023-03-28T20:19:53.126Z,1.50
2023-03-28T20:24:54.985Z,1.40
2023-03-28T20:29:56.709Z,1.30
2023-03-28T20:34:58.456Z,1.40
2023-03-28T20:40:10.950Z,1.40
2023-03-28T20:45:22.251Z,1.20
2023-03-28T20:50:34.138Z,0.90
2023-03-28T20:55:36.173Z,0.80
2023-03-28T21:00:37.941Z,0.70
2023-03-28T21:05:42.464Z,0.80
2023-03-28T21:10:50.821Z,1.00
2023-03-28T21:15:52.710Z,1.10
2023-03-28T21:20:54.521Z,1.10
2023-03-28T21:25:56.397Z,1.00
2023-03-28T21:30:59.983Z,0.80
2023-03-28T21:36:06.602Z,0.70
2023-03-28T21:41:09.296Z,0.70
2023-03-28T21:46:12.815Z,0.60
2023-03-28T21:51:15.543Z,0.60
2023-03-28T21:56:17.283Z,0.60
2023-03-28T22:01:19.826Z,0.60
2023-03-28T22:06:21.579Z,0.60
2023-03-28T22:11:30.631Z,0.70
2023-03-28T22:16:35.092Z,0.80
2023-03-28T22:21:37.508Z,0.90
2023-03-28T22:26:40.565Z,0.90
2023-03-28T22:31:42.382Z,0.70
2023-03-28T22:36:44.178Z,0.60
2023-03-28T22:41:46.167Z,0.60
2023-03-28T22:46:49.627Z,0.70
2023-03-28T22:51:56.170Z,0.80
2023-03-28T22:56:59.086Z,0.90
2023-03-28T23:02:01.262Z,0.90
2023-03-28T23:07:03.805Z,0.90
2023-03-28T23:12:06.218Z,0.90
2023-03-28T23:17:09.795Z,0.90
2023-03-28T23:22:11.554Z,0.90
2023-03-28T23:27:13.286Z,0.80
2023-03-28T23:32:14.995Z,0.80
2023-03-28T23:37:16.762Z,0.70
2023-03-28T23:42:18.566Z,0.70
2023-03-28T23:47:20.620Z,0.70
2023-03-28T23:52:22.321Z,0.60
2023-03-28T23:57:25.257Z,0.70
